createdAt,value
2018-12-30T00:01:23.057Z,5.27
2018-12-30T00:03:50.446Z,5.83
2018-12-30T00:06:40.233Z,5.60
2018-12-30T00:09:18.632Z,6.40
2018-12-30T00:11:45.888Z,5.70
2018-12-30T00:14:13.055Z,4.80
2018-12-30T00:16:48.476Z,6.13
2018-12-30T00:19:16.015Z,6.00
2018-12-30T00:22:05.183Z,6.00
2018-12-30T00:24:32.398Z,5.80
2018-12-30T00:26:59.559Z,6.90
2018-12-30T00:29:26.798Z,6.23
2018-12-30T00:31:53.975Z,5.80
2018-12-30T00:35:08.582Z,5.80
2018-12-30T00:44:10.790Z,6.00
2018-12-30T00:46:37.987Z,5.97
2018-12-30T00:49:17.230Z,7.30
2018-12-30T00:57:25.307Z,6.33
2018-12-30T00:59:53.253Z,7.53
2018-12-30T01:02:20.408Z,6.60
2018-12-30T01:05:28.486Z,6.50
2018-12-30T01:07:55.977Z,6.37
2018-12-30T01:11:04.055Z,7.20
2018-12-30T01:13:31.448Z,6.90
2018-12-30T01:15:58.612Z,6.47
2018-12-30T01:18:25.889Z,7.33
2018-12-30T01:21:12.500Z,6.00
2018-12-30T01:23:39.973Z,5.17
2018-12-30T01:26:07.177Z,4.80
2018-12-30T01:28:53.855Z,5.10
2018-12-30T01:31:21.416Z,5.00
2018-12-30T01:34:08.176Z,5.73
2018-12-30T01:36:35.438Z,4.93
2018-12-30T01:39:43.368Z,4.80
2018-12-30T01:42:10.565Z,4.53
2018-12-30T01:44:37.736Z,5.43
2018-12-30T01:47:04.930Z,4.20
2018-12-30T01:50:12.819Z,4.50
2018-12-30T01:52:59.523Z,5.00
2018-12-30T01:55:26.656Z,4.10
2018-12-30T02:00:34.117Z,5.53
2018-12-30T02:03:01.252Z,3.83
2018-12-30T02:05:28.559Z,3.23
2018-12-30T02:11:09.798Z,2.90
2018-12-30T02:13:37.181Z,2.80
2018-12-30T02:19:17.347Z,3.80
2018-12-30T02:21:44.585Z,3.03
2018-12-30T02:24:31.409Z,2.60
2018-12-30T02:26:59.031Z,3.30
2018-12-30T02:29:45.755Z,3.37
2018-12-30T02:32:32.928Z,3.00
2018-12-30T02:35:12.503Z,2.93
2018-12-30T02:37:39.688Z,3.27
2018-12-30T02:40:47.741Z,2.50
2018-12-30T02:43:14.976Z,3.13
2018-12-30T02:46:42.907Z,2.60
2018-12-30T02:49:10.401Z,3.13
2018-12-30T02:52:18.423Z,3.10
2018-12-30T02:54:45.603Z,2.80
2018-12-30T02:57:12.659Z,2.77
2018-12-30T03:00:07.820Z,2.97
2018-12-30T03:03:15.729Z,3.00
2018-12-30T03:05:42.849Z,2.70
2018-12-30T03:08:10.013Z,2.07
2018-12-30T03:10:37.205Z,2.90
2018-12-30T03:13:04.291Z,3.10
2018-12-30T03:19:06.357Z,2.30
2018-12-30T03:24:13.449Z,2.77
2018-12-30T03:27:12.661Z,2.90
2018-12-30T03:29:39.849Z,2.80
2018-12-30T03:32:07.425Z,2.80
2018-12-30T03:34:34.646Z,3.30
2018-12-30T03:37:02.127Z,2.37
2018-12-30T03:39:29.328Z,2.30
2018-12-30T03:44:57.574Z,2.80
2018-12-30T03:47:44.201Z,2.70
2018-12-30T03:50:11.837Z,3.23
2018-12-30T03:52:39.071Z,4.07
2018-12-30T03:55:06.547Z,3.27
2018-12-30T03:57:33.771Z,3.33
2018-12-30T04:00:00.937Z,2.63
2018-12-30T04:05:30.051Z,2.90
2018-12-30T04:07:57.525Z,4.27
2018-12-30T04:10:56.400Z,2.47
2018-12-30T04:13:23.565Z,3.07
2018-12-30T04:15:50.736Z,3.23
2018-12-30T04:18:19.734Z,2.63
2018-12-30T04:20:46.901Z,2.80
2018-12-30T04:23:54.928Z,2.60
2018-12-30T04:26:22.516Z,2.57
2018-12-30T04:29:09.189Z,3.00
2018-12-30T04:35:10.635Z,3.80
2018-12-30T04:37:57.624Z,2.70
2018-12-30T04:40:24.853Z,2.80
2018-12-30T04:42:52.134Z,3.70
2018-12-30T04:45:38.828Z,3.67
2018-12-30T04:48:05.885Z,3.20
2018-12-30T04:50:58.982Z,2.93
2018-12-30T04:53:26.184Z,3.10
2018-12-30T04:56:12.838Z,3.40
2018-12-30T05:01:52.202Z,2.77
2018-12-30T05:04:31.003Z,3.83
2018-12-30T05:06:58.185Z,3.20
2018-12-30T05:09:25.476Z,3.17
2018-12-30T05:14:55.303Z,2.83
2018-12-30T05:23:03.411Z,2.60
2018-12-30T05:25:30.600Z,2.60
2018-12-30T05:27:57.806Z,2.70
2018-12-30T05:30:25.018Z,2.60
2018-12-30T05:36:12.706Z,2.57
2018-12-30T05:41:48.018Z,2.90
2018-12-30T05:44:15.090Z,2.80
2018-12-30T05:46:42.277Z,2.53
2018-12-30T05:49:50.236Z,2.67
2018-12-30T05:52:17.418Z,2.30
2018-12-30T05:54:44.822Z,2.40
2018-12-30T05:57:31.505Z,2.00
2018-12-30T05:59:58.576Z,3.00
2018-12-30T06:02:25.760Z,2.77
2018-12-30T06:05:12.353Z,2.73
2018-12-30T06:07:39.620Z,3.10
2018-12-30T06:13:08.251Z,3.57
2018-12-30T06:15:35.317Z,2.73
2018-12-30T06:18:02.375Z,3.00
2018-12-30T06:23:49.783Z,2.63
2018-12-30T06:26:57.781Z,3.43
2018-12-30T06:29:25.044Z,3.40
2018-12-30T06:31:52.097Z,2.80
2018-12-30T06:34:38.887Z,2.77
2018-12-30T06:37:06.075Z,3.00
2018-12-30T06:39:35.053Z,3.13
2018-12-30T06:42:02.280Z,2.33
2018-12-30T06:47:50.531Z,2.83
2018-12-30T06:50:37.193Z,3.27
2018-12-30T06:53:04.409Z,3.23
2018-12-30T06:55:51.038Z,2.70
2018-12-30T06:58:18.266Z,2.97
2018-12-30T07:04:05.707Z,2.97
2018-12-30T07:06:32.897Z,3.10
2018-12-30T07:12:21.018Z,2.67
2018-12-30T07:14:48.207Z,3.30
2018-12-30T07:17:15.385Z,3.20
2018-12-30T07:19:42.593Z,2.93
2018-12-30T07:22:29.224Z,3.00
2018-12-30T07:24:56.474Z,3.20
2018-12-30T07:27:23.652Z,3.30
2018-12-30T07:29:50.880Z,3.97
2018-12-30T07:32:37.577Z,3.00
2018-12-30T07:35:04.792Z,3.93
2018-12-30T07:38:12.869Z,3.80
2018-12-30T07:43:19.088Z,4.30
2018-12-30T07:45:46.465Z,3.60
2018-12-30T07:48:13.688Z,4.57
2018-12-30T07:53:40.113Z,4.57
2018-12-30T07:56:07.301Z,3.93
2018-12-30T07:58:34.497Z,3.80
2018-12-30T08:01:01.813Z,3.50
2018-12-30T08:03:29.069Z,4.60
2018-12-30T08:05:56.140Z,3.23
2018-12-30T08:08:23.459Z,4.10
2018-12-30T08:11:31.458Z,4.07
2018-12-30T08:14:18.189Z,3.40
2018-12-30T08:16:45.333Z,3.80
2018-12-30T08:19:32.025Z,3.47
2018-12-30T08:22:18.654Z,4.23
2018-12-30T08:24:45.898Z,3.27
2018-12-30T08:27:32.535Z,3.03
2018-12-30T08:29:59.854Z,3.10
2018-12-30T08:35:06.712Z,3.57
2018-12-30T08:37:34.217Z,2.90
2018-12-30T08:40:13.645Z,3.30
2018-12-30T08:42:40.814Z,3.13
2018-12-30T08:45:08.015Z,3.43
2018-12-30T08:47:35.242Z,3.20
2018-12-30T08:50:14.692Z,3.27
2018-12-30T08:52:41.872Z,3.60
2018-12-30T08:55:09.067Z,2.87
2018-12-30T08:57:36.247Z,3.47
2018-12-30T09:00:44.429Z,3.53
2018-12-30T09:03:11.555Z,3.80
2018-12-30T09:06:19.514Z,3.40
2018-12-30T09:09:06.139Z,3.50
2018-12-30T09:11:33.466Z,4.77
2018-12-30T09:17:21.077Z,3.30
2018-12-30T09:19:48.244Z,3.60
2018-12-30T09:22:15.454Z,3.50
2018-12-30T09:24:42.992Z,3.70
2018-12-30T09:30:56.483Z,3.10
2018-12-30T09:33:43.009Z,3.57
2018-12-30T09:36:10.356Z,3.23
2018-12-30T09:38:56.920Z,4.07
2018-12-30T09:41:36.243Z,3.47
2018-12-30T09:44:03.360Z,4.80
2018-12-30T09:46:30.520Z,3.53
2018-12-30T09:49:17.434Z,5.27
2018-12-30T09:51:44.581Z,5.00
2018-12-30T09:54:31.649Z,4.00
2018-12-30T09:57:18.319Z,4.10
2018-12-30T09:59:45.448Z,3.90
2018-12-30T10:02:12.672Z,3.97
2018-12-30T10:04:40.225Z,5.33
2018-12-30T10:07:07.556Z,5.50
2018-12-30T10:12:14.649Z,3.97
2018-12-30T10:14:53.666Z,3.87
2018-12-30T10:20:22.009Z,5.10
2018-12-30T10:22:49.211Z,5.10
2018-12-30T10:25:16.423Z,5.07
2018-12-30T10:34:05.026Z,5.10
2018-12-30T10:36:52.032Z,5.37
2018-12-30T10:39:19.265Z,5.03
2018-12-30T10:41:46.345Z,4.90
2018-12-30T10:44:13.566Z,4.97
2018-12-30T10:49:41.922Z,4.33
2018-12-30T10:52:09.030Z,5.77
2018-12-30T10:54:38.014Z,5.67
2018-12-30T10:57:05.136Z,5.50
2018-12-30T10:59:51.765Z,5.70
2018-12-30T11:02:19.301Z,6.90
2018-12-30T11:04:46.509Z,5.37
2018-12-30T11:13:16.041Z,6.40
2018-12-30T11:15:43.127Z,6.60
2018-12-30T11:18:10.213Z,6.70
2018-12-30T11:20:37.317Z,5.90
2018-12-30T11:23:04.422Z,6.80
2018-12-30T11:25:31.606Z,6.50
2018-12-30T11:28:18.304Z,6.50
2018-12-30T11:33:58.514Z,6.13
2018-12-30T11:36:25.726Z,6.10
2018-12-30T11:41:45.572Z,6.30
2018-12-30T11:44:12.676Z,7.50
2018-12-30T11:46:39.886Z,6.90
2018-12-30T11:52:08.262Z,7.90
2018-12-30T12:00:16.836Z,7.70
2018-12-30T12:02:44.544Z,9.40
2018-12-30T12:08:51.190Z,8.20
2018-12-30T12:11:18.712Z,7.40
2018-12-30T12:14:05.381Z,7.83
2018-12-30T12:16:32.547Z,8.73
2018-12-30T12:18:59.711Z,8.27
2018-12-30T12:21:26.940Z,8.30
2018-12-30T12:23:54.115Z,7.53
2018-12-30T12:26:21.336Z,7.53
2018-12-30T12:28:48.547Z,6.60
2018-12-30T12:31:15.663Z,7.50
2018-12-30T12:33:55.815Z,7.03
2018-12-30T12:36:23.012Z,6.50
2018-12-30T12:38:50.288Z,6.23
2018-12-30T12:41:17.761Z,5.97
2018-12-30T12:43:44.978Z,7.27
2018-12-30T12:46:12.152Z,6.10
2018-12-30T12:48:39.364Z,5.47
2018-12-30T12:51:06.495Z,4.67
2018-12-30T12:53:34.128Z,4.90
2018-12-30T12:56:01.718Z,5.20
2018-12-30T13:01:49.430Z,4.67
2018-12-30T13:04:16.946Z,5.43
2018-12-30T13:07:16.068Z,4.93
2018-12-30T13:09:43.238Z,4.90
2018-12-30T13:12:29.930Z,4.53
2018-12-30T13:15:16.841Z,3.80
2018-12-30T13:18:03.411Z,4.60
2018-12-30T13:20:30.492Z,4.20
2018-12-30T13:22:57.618Z,4.20
2018-12-30T13:28:25.658Z,4.30
2018-12-30T13:30:52.880Z,4.63
2018-12-30T13:33:32.138Z,3.90
2018-12-30T13:35:59.236Z,5.20
2018-12-30T13:38:38.653Z,4.13
2018-12-30T13:41:05.835Z,3.43
2018-12-30T13:43:33.024Z,4.33
2018-12-30T13:46:00.131Z,4.10
2018-12-30T13:48:46.778Z,4.10
2018-12-30T13:51:13.987Z,4.20
2018-12-30T13:53:41.180Z,3.90
2018-12-30T13:56:19.892Z,3.80
2018-12-30T13:58:53.947Z,3.43
2018-12-30T14:01:21.200Z,3.83
2018-12-30T14:04:07.838Z,2.93
2018-12-30T14:06:54.533Z,3.00
2018-12-30T14:09:21.720Z,3.40
2018-12-30T14:11:48.934Z,3.17
2018-12-30T14:14:16.123Z,3.73
2018-12-30T14:16:43.323Z,4.10
2018-12-30T14:19:10.618Z,3.00
2018-12-30T14:24:32.018Z,3.70
2018-12-30T14:27:40.078Z,3.40
2018-12-30T14:33:27.523Z,3.63
2018-12-30T14:35:54.709Z,3.50
2018-12-30T14:38:21.889Z,3.93
2018-12-30T14:41:31.976Z,3.30
2018-12-30T14:43:59.128Z,3.93
2018-12-30T14:46:45.800Z,3.30
2018-12-30T14:49:12.963Z,3.70
2018-12-30T14:52:20.908Z,3.27
2018-12-30T14:54:48.111Z,3.67
2018-12-30T14:57:35.021Z,3.93
2018-12-30T15:03:16.752Z,3.80
2018-12-30T15:05:43.931Z,6.10
2018-12-30T15:08:11.466Z,5.17
2018-12-30T15:13:53.480Z,6.57
2018-12-30T15:16:40.382Z,4.90
2018-12-30T15:19:07.923Z,4.27
2018-12-30T15:21:35.097Z,4.47
2018-12-30T15:24:02.317Z,3.40
2018-12-30T15:26:29.898Z,3.57
2018-12-30T15:28:57.123Z,3.80
2018-12-30T15:31:24.293Z,5.40
2018-12-30T15:33:51.549Z,3.60
2018-12-30T15:39:27.045Z,3.83
2018-12-30T15:42:06.615Z,4.67
2018-12-30T15:44:53.329Z,3.40
2018-12-30T15:50:22.591Z,4.10
2018-12-30T15:52:49.809Z,3.87
2018-12-30T15:55:19.591Z,3.40
2018-12-30T15:57:52.844Z,3.87
2018-12-30T16:00:20.410Z,5.00
2018-12-30T16:05:48.982Z,4.27
2018-12-30T16:08:36.012Z,3.20
2018-12-30T16:11:03.532Z,4.63
2018-12-30T16:13:30.725Z,4.00
2018-12-30T16:16:17.384Z,4.53
2018-12-30T16:18:44.928Z,3.90
2018-12-30T16:21:12.130Z,4.30
2018-12-30T16:23:39.360Z,3.97
2018-12-30T16:26:06.527Z,4.03
2018-12-30T16:28:33.708Z,3.70
2018-12-30T16:31:00.827Z,4.97
2018-12-30T16:33:28.012Z,3.70
2018-12-30T16:35:55.086Z,4.23
2018-12-30T16:39:03.309Z,4.10
2018-12-30T16:41:30.701Z,3.90
2018-12-30T16:44:11.031Z,4.03
2018-12-30T16:46:57.593Z,3.10
2018-12-30T16:49:44.266Z,4.70
2018-12-30T16:52:11.462Z,4.37
2018-12-30T16:54:38.674Z,4.47
2018-12-30T16:57:17.970Z,4.17
2018-12-30T17:03:05.275Z,5.47
2018-12-30T17:05:32.377Z,4.50
2018-12-30T17:11:00.925Z,6.80
2018-12-30T17:13:28.130Z,5.70
2018-12-30T17:18:35.788Z,5.60
2018-12-30T17:21:03.368Z,7.40
2018-12-30T17:23:30.541Z,5.10
2018-12-30T17:25:57.784Z,5.27
2018-12-30T17:28:25.213Z,5.43
2018-12-30T17:36:35.076Z,4.97
2018-12-30T17:39:22.447Z,4.93
2018-12-30T17:41:49.682Z,5.80
2018-12-30T17:47:25.002Z,5.43
2018-12-30T17:50:32.999Z,5.70
2018-12-30T17:58:19.957Z,5.43
2018-12-30T18:00:47.171Z,5.33
2018-12-30T18:03:14.245Z,5.30
2018-12-30T18:05:41.329Z,6.43
2018-12-30T18:08:08.538Z,5.13
2018-12-30T18:10:35.757Z,5.07
2018-12-30T18:13:02.936Z,5.13
2018-12-30T18:15:30.048Z,5.43
2018-12-30T18:18:16.589Z,5.53
2018-12-30T18:20:44.109Z,5.93
2018-12-30T18:23:11.284Z,5.37
2018-12-30T18:25:58.751Z,5.27
2018-12-30T18:28:46.722Z,6.10
2018-12-30T18:31:13.882Z,5.67
2018-12-30T18:33:41.191Z,6.60
2018-12-30T18:36:16.381Z,6.43
2018-12-30T18:38:43.584Z,6.27
2018-12-30T18:41:10.651Z,6.93
2018-12-30T18:43:37.871Z,6.20
2018-12-30T18:46:05.149Z,5.97
2018-12-30T18:48:32.393Z,7.33
2018-12-30T18:53:58.798Z,6.30
2018-12-30T18:56:45.437Z,6.83
2018-12-30T18:59:12.631Z,6.90
2018-12-30T19:01:59.578Z,5.93
2018-12-30T19:05:07.636Z,6.90
2018-12-30T19:07:34.767Z,6.83
2018-12-30T19:10:01.977Z,6.60
2018-12-30T19:12:48.572Z,6.83
2018-12-30T19:15:15.829Z,7.70
2018-12-30T19:18:02.477Z,7.30
2018-12-30T19:20:29.518Z,7.67
2018-12-30T19:22:56.935Z,7.00
2018-12-30T19:25:24.149Z,6.50
2018-12-30T19:27:51.412Z,6.60
2018-12-30T19:33:20.150Z,6.63
2018-12-30T19:35:47.331Z,6.53
2018-12-30T19:38:16.390Z,7.67
2018-12-30T19:40:43.677Z,6.53
2018-12-30T19:43:10.870Z,5.90
2018-12-30T19:45:38.101Z,5.63
2018-12-30T19:48:05.202Z,5.70
2018-12-30T19:50:32.426Z,5.50
2018-12-30T19:52:59.647Z,6.77
2018-12-30T19:55:26.861Z,7.10
2018-12-30T20:00:34.401Z,5.77
2018-12-30T20:06:15.055Z,6.93
2018-12-30T20:09:01.693Z,6.33
2018-12-30T20:11:48.593Z,6.23
2018-12-30T20:14:15.766Z,7.27
2018-12-30T20:17:02.460Z,7.03
2018-12-30T20:19:29.641Z,7.70
2018-12-30T20:21:57.138Z,6.40
2018-12-30T20:24:25.006Z,8.73
2018-12-30T20:27:11.708Z,7.40
2018-12-30T20:29:38.970Z,8.17
2018-12-30T20:32:06.261Z,7.47
2018-12-30T20:35:14.332Z,7.20
2018-12-30T20:37:41.786Z,7.10
2018-12-30T20:40:09.015Z,8.33
2018-12-30T20:42:36.222Z,7.90
2018-12-30T20:48:04.376Z,7.63
2018-12-30T20:53:32.628Z,7.07
2018-12-30T20:55:59.886Z,7.53
2018-12-30T20:58:27.075Z,7.50
2018-12-30T21:00:54.329Z,8.07
2018-12-30T21:06:21.988Z,7.03
2018-12-30T21:08:49.186Z,8.03
2018-12-30T21:11:16.383Z,7.07
2018-12-30T21:13:43.631Z,8.20
2018-12-30T21:16:10.827Z,7.50
2018-12-30T21:18:38.008Z,7.77
2018-12-30T21:21:05.119Z,8.37
2018-12-30T21:29:13.772Z,8.57
2018-12-30T21:34:20.746Z,9.13
2018-12-30T21:36:47.940Z,9.90
2018-12-30T21:48:02.128Z,8.20
2018-12-30T21:50:29.608Z,10.27
2018-12-30T21:52:57.186Z,9.50
2018-12-30T21:55:24.362Z,9.03
2018-12-30T21:58:23.363Z,10.43
2018-12-30T22:01:10.002Z,9.63
2018-12-30T22:03:56.686Z,9.13
2018-12-30T22:06:24.596Z,10.23
2018-12-30T22:08:52.144Z,9.80
2018-12-30T22:11:19.401Z,9.73
2018-12-30T22:13:46.589Z,10.60
2018-12-30T22:16:54.609Z,11.60
2018-12-30T22:22:55.725Z,9.40
2018-12-30T22:25:22.939Z,10.20
2018-12-30T22:30:51.067Z,10.73
2018-12-30T22:33:18.444Z,10.07
2018-12-30T22:38:46.508Z,9.20
2018-12-30T22:41:54.441Z,11.50
2018-12-30T22:47:01.734Z,11.33
2018-12-30T22:49:31.096Z,9.80
2018-12-30T22:52:18.065Z,10.53
2018-12-30T22:54:45.302Z,10.17
2018-12-30T22:57:24.739Z,10.30
2018-12-30T22:59:52.307Z,9.23
2018-12-30T23:02:19.510Z,10.50
2018-12-30T23:04:46.737Z,11.50
2018-12-30T23:07:13.830Z,10.97
2018-12-30T23:10:00.496Z,11.10
2018-12-30T23:15:48.261Z,10.23
2018-12-30T23:18:27.201Z,11.20
2018-12-30T23:20:54.681Z,11.23
2018-12-30T23:23:21.925Z,10.53
2018-12-30T23:28:50.255Z,10.90
2018-12-30T23:31:17.446Z,10.23
2018-12-30T23:33:56.534Z,11.33
2018-12-30T23:36:23.710Z,11.10
2018-12-30T23:38:51.137Z,11.23
2018-12-30T23:41:37.783Z,10.77
2018-12-30T23:44:24.342Z,10.73
2018-12-30T23:47:11.042Z,10.30
2018-12-30T23:49:38.117Z,10.40
2018-12-30T23:52:24.868Z,10.07
2018-12-30T23:54:52.033Z,10.50
2018-12-30T23:57:19.532Z,9.97
